createdAt,value
2018-12-21T00:00:12.807Z,100594.49
2018-12-21T00:02:40.473Z,100590.38
2018-12-21T00:05:08.223Z,100592.56
2018-12-21T00:07:35.795Z,100602.73
2018-12-21T00:10:03.951Z,100598.78
2018-12-21T00:12:31.631Z,100591.73
2018-12-21T00:14:59.191Z,100584.37
2018-12-21T00:17:34.294Z,100584.16
2018-12-21T00:19:56.867Z,100570.36
2018-12-21T00:22:24.737Z,100570.36
2018-12-21T00:24:52.202Z,100550.13
2018-12-21T00:27:19.979Z,100556.25
2018-12-21T00:29:47.522Z,100555.20
2018-12-21T00:32:20.831Z,100547.64
2018-12-21T00:34:54.839Z,100540.89
2018-12-21T00:37:28.224Z,100529.58
2018-12-21T00:40:01.474Z,100526.57
2018-12-21T00:42:31.327Z,100519.83
2018-12-21T00:45:00.677Z,100524.70
2018-12-21T00:47:28.290Z,100527.41
2018-12-21T00:49:55.959Z,100517.12
2018-12-21T00:52:23.718Z,100520.87
2018-12-21T00:54:51.363Z,100518.69
2018-12-21T00:57:18.936Z,100525.75
2018-12-21T00:59:46.690Z,100533.53
2018-12-21T01:02:14.113Z,100522.44
2018-12-21T01:04:41.911Z,100527.30
2018-12-21T01:07:09.326Z,100523.26
2018-12-21T01:09:37.050Z,100517.03
2018-12-21T01:12:04.481Z,100517.28
2018-12-21T01:14:32.271Z,100516.20
2018-12-21T01:17:00.323Z,100511.05
2018-12-21T01:19:28.078Z,100514.58
2018-12-21T01:21:55.745Z,100501.00
2018-12-21T01:24:23.298Z,100502.13
2018-12-21T01:26:50.902Z,100507.22
2018-12-21T01:29:18.960Z,100506.91
2018-12-21T01:31:46.723Z,100504.42
2018-12-21T01:34:14.411Z,100500.91
2018-12-21T01:36:42.225Z,100495.51
2018-12-21T01:39:09.783Z,100496.34
2018-12-21T01:41:37.847Z,100497.90
2018-12-21T01:46:59.795Z,100494.31
2018-12-21T01:49:27.471Z,100495.94
2018-12-21T01:51:54.887Z,100502.16
2018-12-21T01:54:22.435Z,100501.57
2018-12-21T01:56:50.010Z,100509.88
2018-12-21T01:59:17.598Z,100515.79
2018-12-21T02:01:45.167Z,100513.41
2018-12-21T02:04:12.713Z,100506.56
2018-12-21T02:06:40.490Z,100496.08
2018-12-21T02:09:08.126Z,100503.44
2018-12-21T02:11:35.590Z,100504.79
2018-12-21T02:14:03.355Z,100492.66
2018-12-21T02:16:30.858Z,100488.30
2018-12-21T02:18:58.419Z,100497.43
2018-12-21T02:21:25.861Z,100497.38
2018-12-21T02:23:53.491Z,100479.38
2018-12-21T02:26:20.949Z,100478.42
2018-12-21T02:28:48.452Z,100477.81
2018-12-21T02:31:16.474Z,100489.88
2018-12-21T02:33:44.004Z,100486.77
2018-12-21T02:36:11.664Z,100486.16
2018-12-21T02:38:39.216Z,100479.52
2018-12-21T02:41:06.702Z,100461.33
2018-12-21T02:43:34.375Z,100458.94
2018-12-21T02:46:02.440Z,100458.94
2018-12-21T02:48:30.166Z,100458.42
2018-12-21T02:50:58.067Z,100452.50
2018-12-21T02:53:25.838Z,100436.02
2018-12-21T02:55:53.806Z,100420.15
2018-12-21T02:58:21.480Z,100414.76
2018-12-21T03:00:48.902Z,100409.98
2018-12-21T03:03:16.377Z,100401.80
2018-12-21T03:05:43.851Z,100398.80
2018-12-21T03:08:11.925Z,100398.27
2018-12-21T03:10:39.488Z,100387.18
2018-12-21T03:13:07.136Z,100383.45
2018-12-21T03:15:35.226Z,100378.27
2018-12-21T03:18:02.770Z,100372.05
2018-12-21T03:20:30.341Z,100373.39
2018-12-21T03:22:57.956Z,100367.20
2018-12-21T03:25:25.949Z,100357.52
2018-12-21T03:27:53.552Z,100356.17
2018-12-21T03:30:21.125Z,100345.02
2018-12-21T03:32:49.138Z,100337.77
2018-12-21T03:35:16.728Z,100342.84
2018-12-21T03:37:44.135Z,100330.19
2018-12-21T03:40:11.636Z,100327.41
2018-12-21T03:42:39.076Z,100320.97
2018-12-21T03:45:06.570Z,100316.10
2018-12-21T03:47:34.104Z,100317.76
2018-12-21T03:50:01.699Z,100326.06
2018-12-21T03:52:29.789Z,100320.67
2018-12-21T03:54:57.355Z,100302.31
2018-12-21T03:57:24.854Z,100293.70
2018-12-21T03:59:52.496Z,100300.75
2018-12-21T04:02:20.977Z,100295.27
2018-12-21T04:04:48.950Z,100304.70
2018-12-21T04:07:16.407Z,100297.66
2018-12-21T04:09:44.453Z,100311.23
2018-12-21T04:12:12.159Z,100306.79
2018-12-21T04:14:40.214Z,100305.23
2018-12-21T04:17:08.111Z,100302.17
2018-12-21T04:19:35.505Z,100303.30
2018-12-21T04:22:02.978Z,100296.01
2018-12-21T04:24:30.454Z,100283.82
2018-12-21T04:26:57.909Z,100281.73
2018-12-21T04:29:25.468Z,100278.73
2018-12-21T04:31:53.142Z,100262.77
2018-12-21T04:34:20.690Z,100264.13
2018-12-21T04:36:48.249Z,100258.42
2018-12-21T04:39:15.820Z,100254.91
2018-12-21T04:41:43.492Z,100247.86
2018-12-21T04:44:11.236Z,100250.55
2018-12-21T04:46:38.689Z,100236.77
2018-12-21T04:49:06.355Z,100237.59
2018-12-21T04:51:34.014Z,100244.55
2018-12-21T04:54:02.279Z,100242.69
2018-12-21T04:56:30.059Z,100241.55
2018-12-21T04:58:57.514Z,100238.03
2018-12-21T05:01:25.264Z,100222.41
2018-12-21T05:03:52.833Z,100231.02
2018-12-21T05:06:20.702Z,100241.28
2018-12-21T05:08:48.469Z,100220.76
2018-12-21T05:11:16.127Z,100218.06
2018-12-21T05:13:43.695Z,100218.28
2018-12-21T05:16:11.310Z,100220.16
2018-12-21T05:18:38.803Z,100209.38
2018-12-21T05:21:06.575Z,100199.63
2018-12-21T05:23:34.018Z,100189.16
2018-12-21T05:26:01.681Z,100169.37
2018-12-21T05:28:29.138Z,100169.37
2018-12-21T05:30:56.726Z,100155.59
2018-12-21T05:33:24.365Z,100150.21
2018-12-21T05:35:52.022Z,100152.60
2018-12-21T05:38:20.081Z,100128.08
2018-12-21T05:40:47.776Z,100132.94
2018-12-21T05:43:15.632Z,100119.16
2018-12-21T05:45:43.185Z,100127.55
2018-12-21T05:48:10.955Z,100124.55
2018-12-21T05:50:38.517Z,100114.30
2018-12-21T05:53:06.066Z,100100.52
2018-12-21T05:55:33.836Z,100098.66
2018-12-21T05:58:01.378Z,100089.52
2018-12-21T06:00:28.940Z,100074.62
2018-12-21T06:02:56.493Z,100059.80
2018-12-21T06:05:24.165Z,100061.14
2018-12-21T06:07:51.828Z,100054.10
2018-12-21T06:10:19.345Z,100046.55
2018-12-21T06:12:47.046Z,100049.77
2018-12-21T06:15:14.852Z,100032.55
2018-12-21T06:17:42.268Z,100043.02
2018-12-21T06:20:10.029Z,100035.98
2018-12-21T06:22:37.486Z,100033.81
2018-12-21T06:25:05.822Z,100019.82
2018-12-21T06:27:33.738Z,100015.78
2018-12-21T06:30:01.216Z,100014.95
2018-12-21T06:32:28.857Z,99995.57
2018-12-21T06:34:56.410Z,100002.25
2018-12-21T06:37:24.098Z,99992.57
2018-12-21T06:39:51.732Z,99986.61
2018-12-21T06:42:19.397Z,99997.69
2018-12-21T06:44:47.017Z,99989.05
2018-12-21T06:47:14.514Z,99984.22
2018-12-21T06:49:42.260Z,99992.30
2018-12-21T06:52:09.777Z,99996.86
2018-12-21T06:54:37.371Z,99994.09
2018-12-21T06:57:05.088Z,99991.92
2018-12-21T06:59:32.717Z,99984.14
2018-12-21T07:02:00.388Z,99979.27
2018-12-21T07:04:27.952Z,99988.48
2018-12-21T07:06:55.532Z,99978.36
2018-12-21T07:09:23.158Z,99969.53
2018-12-21T07:11:50.802Z,99969.09
2018-12-21T07:14:18.392Z,99970.48
2018-12-21T07:16:45.972Z,99956.79
2018-12-21T07:19:13.512Z,99956.13
2018-12-21T07:21:40.946Z,99953.25
2018-12-21T07:24:08.546Z,99958.94
2018-12-21T07:26:36.074Z,99954.23
2018-12-21T07:29:03.624Z,99936.83
2018-12-21T07:31:31.181Z,99933.69
2018-12-21T07:33:58.844Z,99920.03
2018-12-21T07:36:26.334Z,99921.30
2018-12-21T07:38:54.336Z,99915.16
2018-12-21T07:41:22.012Z,99922.05
2018-12-21T07:43:49.748Z,99908.38
2018-12-21T07:46:17.414Z,99900.14
2018-12-21T07:48:45.031Z,99915.84
2018-12-21T07:51:12.708Z,99908.12
2018-12-21T07:53:40.352Z,99906.84
2018-12-21T07:56:07.928Z,99898.86
2018-12-21T07:58:35.466Z,99887.55
2018-12-21T08:01:03.004Z,99888.44
2018-12-21T08:03:30.562Z,99875.05
2018-12-21T08:05:58.020Z,99877.53
2018-12-21T08:08:25.732Z,99881.11
2018-12-21T08:10:53.343Z,99869.30
2018-12-21T08:13:20.949Z,99879.34
2018-12-21T08:15:48.470Z,99868.09
2018-12-21T08:18:16.257Z,99864.37
2018-12-21T08:20:43.918Z,99849.08
2018-12-21T08:23:11.485Z,99867.69
2018-12-21T08:25:39.118Z,99854.31
2018-12-21T08:28:06.801Z,99849.79
2018-12-21T08:30:34.541Z,99846.48
2018-12-21T08:33:02.093Z,99850.39
2018-12-21T08:35:29.889Z,99860.56
2018-12-21T08:37:57.618Z,99854.58
2018-12-21T08:40:25.085Z,99832.95
2018-12-21T08:42:52.754Z,99830.64
2018-12-21T08:45:20.174Z,99806.95
2018-12-21T08:47:47.865Z,99824.63
2018-12-21T08:50:15.630Z,99829.53
2018-12-21T08:52:43.381Z,99817.75
2018-12-21T08:55:12.014Z,99821.27
2018-12-21T08:57:40.040Z,99808.60
2018-12-21T09:00:10.100Z,99793.63
2018-12-21T09:02:37.738Z,99800.20
2018-12-21T09:05:06.311Z,99807.31
2018-12-21T09:07:34.164Z,99795.73
2018-12-21T09:10:01.852Z,99788.98
2018-12-21T09:12:29.392Z,99777.12
2018-12-21T09:14:57.170Z,99779.36
2018-12-21T09:17:24.608Z,99769.09
2018-12-21T09:19:52.379Z,99762.94
2018-12-21T09:22:20.044Z,99751.61
2018-12-21T09:24:47.913Z,99733.78
2018-12-21T09:27:15.577Z,99720.28
2018-12-21T09:29:43.236Z,99720.84
2018-12-21T09:32:10.680Z,99718.44
2018-12-21T09:34:38.347Z,99705.73
2018-12-21T09:37:06.003Z,99695.47
2018-12-21T09:39:33.607Z,99694.94
2018-12-21T09:42:01.233Z,99686.34
2018-12-21T09:44:28.687Z,99684.70
2018-12-21T09:46:56.453Z,99676.87
2018-12-21T09:49:24.015Z,99695.17
2018-12-21T09:51:51.767Z,99680.86
2018-12-21T09:54:19.423Z,99667.66
2018-12-21T09:56:47.081Z,99651.41
2018-12-21T09:59:14.866Z,99651.17
2018-12-21T10:01:42.501Z,99656.86
2018-12-21T10:04:10.440Z,99637.09
2018-12-21T10:06:38.061Z,99646.53
2018-12-21T10:09:07.242Z,99642.78
2018-12-21T10:11:34.929Z,99653.05
2018-12-21T10:14:03.255Z,99629.77
2018-12-21T10:16:30.967Z,99634.63
2018-12-21T10:18:58.745Z,99635.66
2018-12-21T10:21:26.367Z,99635.39
2018-12-21T10:23:54.073Z,99614.36
2018-12-21T10:26:21.603Z,99632.44
2018-12-21T10:28:49.263Z,99620.82
2018-12-21T10:31:17.037Z,99623.23
2018-12-21T10:33:44.757Z,99625.63
2018-12-21T10:36:12.253Z,99627.52
2018-12-21T10:38:40.017Z,99608.56
2018-12-21T10:41:07.979Z,99620.94
2018-12-21T10:43:35.428Z,99617.92
2018-12-21T10:46:03.192Z,99614.94
2018-12-21T10:48:30.665Z,99614.94
2018-12-21T10:50:58.622Z,99614.94
2018-12-21T10:53:26.218Z,99606.84
2018-12-21T10:55:53.944Z,99602.03
2018-12-21T10:58:21.350Z,99594.99
2018-12-21T11:00:48.937Z,99609.83
2018-12-21T11:03:16.451Z,99601.73
2018-12-21T11:05:44.482Z,99599.06
2018-12-21T11:08:12.145Z,99600.97
2018-12-21T11:10:39.996Z,99609.09
2018-12-21T11:13:07.487Z,99585.62
2018-12-21T11:15:35.146Z,99606.16
2018-12-21T11:18:03.024Z,99597.30
2018-12-21T11:20:30.969Z,99580.08
2018-12-21T11:22:58.664Z,99588.22
2018-12-21T11:25:26.763Z,99588.52
2018-12-21T11:27:54.775Z,99588.05
2018-12-21T11:30:22.755Z,99584.81
2018-12-21T11:32:50.825Z,99582.72
2018-12-21T11:35:18.481Z,99590.95
2018-12-21T11:37:46.328Z,99572.32
2018-12-21T11:40:13.933Z,99562.88
2018-12-21T11:42:41.774Z,99580.42
2018-12-21T11:45:09.246Z,99585.27
2018-12-21T11:47:37.297Z,99593.36
2018-12-21T11:50:07.971Z,99583.92
2018-12-21T11:52:36.105Z,99585.58
2018-12-21T11:55:04.902Z,99577.24
2018-12-21T11:57:32.344Z,99569.63
2018-12-21T12:00:00.364Z,99577.24
2018-12-21T12:02:28.203Z,99578.30
2018-12-21T12:04:55.912Z,99566.45
2018-12-21T12:07:24.049Z,99578.41
2018-12-21T12:09:51.489Z,99573.00
2018-12-21T12:12:19.031Z,99564.38
2018-12-21T12:14:46.992Z,99540.61
2018-12-21T12:17:14.855Z,99562.50
2018-12-21T12:19:42.969Z,99562.50
2018-12-21T12:22:10.785Z,99549.84
2018-12-21T12:24:38.776Z,99555.82
2018-12-21T12:27:06.430Z,99554.81
2018-12-21T12:29:34.023Z,99558.59
2018-12-21T12:32:01.659Z,99540.51
2018-12-21T12:34:29.616Z,99544.31
2018-12-21T12:36:58.075Z,99539.02
2018-12-21T12:39:26.176Z,99512.56
2018-12-21T12:41:53.640Z,99533.39
2018-12-21T12:44:21.397Z,99532.33
2018-12-21T12:46:49.474Z,99546.98
2018-12-21T12:49:17.135Z,99550.23
2018-12-21T12:51:44.572Z,99554.28
2018-12-21T12:54:12.052Z,99531.13
2018-12-21T12:56:40.194Z,99547.34
2018-12-21T12:59:07.767Z,99544.41
2018-12-21T13:01:35.855Z,99556.91
2018-12-21T13:04:03.497Z,99556.66
2018-12-21T13:06:30.922Z,99561.82
2018-12-21T13:08:58.525Z,99549.95
2018-12-21T13:11:26.631Z,99553.20
2018-12-21T13:13:54.854Z,99552.96
2018-12-21T13:16:22.513Z,99538.72
2018-12-21T13:18:49.938Z,99540.89
2018-12-21T13:21:17.351Z,99547.38
2018-12-21T13:23:44.792Z,99558.23
2018-12-21T13:26:12.279Z,99550.12
2018-12-21T13:28:39.832Z,99557.20
2018-12-21T13:31:07.363Z,99550.73
2018-12-21T13:33:34.963Z,99561.27
2018-12-21T13:36:02.345Z,99543.18
2018-12-21T13:38:29.871Z,99554.85
2018-12-21T13:40:57.435Z,99534.91
2018-12-21T13:43:25.196Z,99553.29
2018-12-21T13:45:52.766Z,99537.91
2018-12-21T13:48:20.208Z,99540.61
2018-12-21T13:50:47.747Z,99544.17
2018-12-21T13:53:15.327Z,99531.52
2018-12-21T13:55:42.957Z,99561.78
2018-12-21T13:58:10.373Z,99561.53
2018-12-21T14:00:37.985Z,99552.33
2018-12-21T14:03:05.445Z,99565.60
2018-12-21T14:05:32.973Z,99553.97
2018-12-21T14:08:00.585Z,99558.60
2018-12-21T14:10:28.005Z,99556.72
2018-12-21T14:12:55.525Z,99552.42
2018-12-21T14:15:23.021Z,99572.12
2018-12-21T14:17:50.479Z,99590.50
2018-12-21T14:20:18.512Z,99591.08
2018-12-21T14:22:46.105Z,99581.63
2018-12-21T14:25:13.521Z,99600.02
2018-12-21T14:27:41.618Z,99598.41
2018-12-21T14:30:09.234Z,99618.69
2018-12-21T14:32:36.746Z,99627.63
2018-12-21T14:35:04.995Z,99627.87
2018-12-21T14:37:33.066Z,99625.45
2018-12-21T14:40:00.682Z,99614.36
2018-12-21T14:42:28.823Z,99621.41
2018-12-21T14:44:56.416Z,99628.73
2018-12-21T14:47:24.467Z,99631.44
2018-12-21T14:49:52.044Z,99632.80
2018-12-21T14:52:19.532Z,99633.33
2018-12-21T14:54:46.927Z,99629.52
2018-12-21T14:57:14.345Z,99637.08
2018-12-21T14:59:41.905Z,99632.22
2018-12-21T15:02:09.933Z,99627.92
2018-12-21T15:04:37.631Z,99641.73
2018-12-21T15:07:05.061Z,99649.80
2018-12-21T15:09:32.655Z,99655.20
2018-12-21T15:12:00.681Z,99655.20
2018-12-21T15:14:28.333Z,99636.27
2018-12-21T15:16:55.941Z,99655.20
2018-12-21T15:19:23.449Z,99661.66
2018-12-21T15:21:50.900Z,99664.25
2018-12-21T15:24:18.369Z,99679.08
2018-12-21T15:26:45.853Z,99665.65
2018-12-21T15:29:13.363Z,99669.23
2018-12-21T15:31:40.933Z,99685.63
2018-12-21T15:34:08.559Z,99690.89
2018-12-21T15:36:36.058Z,99692.72
2018-12-21T15:39:04.862Z,99699.84
2018-12-21T15:41:32.564Z,99701.30
2018-12-21T15:43:59.947Z,99711.94
2018-12-21T15:46:27.541Z,99714.93
2018-12-21T15:48:55.089Z,99702.30
2018-12-21T15:51:23.213Z,99701.78
2018-12-21T15:53:50.748Z,99699.43
2018-12-21T15:56:18.296Z,99713.52
2018-12-21T15:58:45.795Z,99703.77
2018-12-21T16:01:13.788Z,99710.31
2018-12-21T16:03:41.446Z,99693.80
2018-12-21T16:06:09.115Z,99698.15
2018-12-21T16:08:37.187Z,99683.28
2018-12-21T16:11:04.749Z,99688.98
2018-12-21T16:13:32.350Z,99688.45
2018-12-21T16:15:59.762Z,99699.02
2018-12-21T16:18:27.347Z,99687.92
2018-12-21T16:20:54.776Z,99697.91
2018-12-21T16:23:22.347Z,99708.77
2018-12-21T16:25:49.798Z,99712.00
2018-12-21T16:28:17.224Z,99719.00
2018-12-21T16:30:44.716Z,99719.00
2018-12-21T16:33:12.321Z,99722.76
2018-12-21T16:35:40.337Z,99717.86
2018-12-21T16:38:07.885Z,99715.71
2018-12-21T16:40:35.661Z,99734.08
2018-12-21T16:43:03.621Z,99737.04
2018-12-21T16:45:31.109Z,99731.08
2018-12-21T16:47:59.014Z,99722.10
2018-12-21T16:50:26.774Z,99722.88
2018-12-21T16:52:54.419Z,99716.94
2018-12-21T16:55:21.995Z,99725.05
2018-12-21T16:57:49.434Z,99717.23
2018-12-21T17:00:17.157Z,99727.98
2018-12-21T17:02:44.603Z,99721.23
2018-12-21T17:05:12.386Z,99717.69
2018-12-21T17:07:39.876Z,99717.17
2018-12-21T17:10:10.374Z,99729.60
2018-12-21T17:12:38.013Z,99740.64
2018-12-21T17:15:08.736Z,99740.88
2018-12-21T17:17:36.615Z,99746.81
2018-12-21T17:20:06.375Z,99758.45
2018-12-21T17:22:33.940Z,99757.04
2018-12-21T17:25:01.361Z,99763.79
2018-12-21T17:27:29.164Z,99754.58
2018-12-21T17:29:57.269Z,99762.91
2018-12-21T17:32:24.949Z,99762.13
2018-12-21T17:34:52.410Z,99761.30
2018-12-21T17:37:19.977Z,99761.83
2018-12-21T17:39:47.555Z,99759.89
2018-12-21T17:42:15.302Z,99775.81
2018-12-21T17:44:42.716Z,99771.23
2018-12-21T17:47:10.322Z,99776.63
2018-12-21T17:49:37.785Z,99770.35
2018-12-21T17:52:05.213Z,99782.60
2018-12-21T17:54:32.820Z,99781.84
2018-12-21T17:57:00.451Z,99778.16
2018-12-21T17:59:27.909Z,99790.05
2018-12-21T18:01:55.347Z,99791.14
2018-12-21T18:04:23.553Z,99787.09
2018-12-21T18:06:51.222Z,99804.94
2018-12-21T18:09:19.076Z,99793.90
2018-12-21T18:11:47.030Z,99798.19
2018-12-21T18:14:14.593Z,99803.00
2018-12-21T18:16:42.182Z,99800.27
2018-12-21T18:19:09.621Z,99792.41
2018-12-21T18:21:44.437Z,99799.16
2018-12-21T18:24:11.879Z,99795.87
2018-12-21T18:26:39.449Z,99792.88
2018-12-21T18:29:06.928Z,99809.91
2018-12-21T18:31:39.005Z,99811.48
2018-12-21T18:34:08.506Z,99812.81
2018-12-21T18:36:36.123Z,99825.25
2018-12-21T18:39:05.244Z,99817.68
2018-12-21T18:41:33.010Z,99812.22
2018-12-21T18:44:00.479Z,99817.63
2018-12-21T18:46:28.017Z,99818.38
2018-12-21T18:48:55.586Z,99832.41
2018-12-21T18:51:22.995Z,99833.47
2018-12-21T18:53:50.627Z,99820.50
2018-12-21T18:56:20.402Z,99840.45
2018-12-21T18:58:49.310Z,99831.27
2018-12-21T19:01:17.289Z,99848.29
2018-12-21T19:03:46.285Z,99850.17
2018-12-21T19:06:13.914Z,99850.40
2018-12-21T19:08:41.511Z,99845.30
2018-12-21T19:11:09.174Z,99844.94
2018-12-21T19:13:36.595Z,99842.47
2018-12-21T19:16:04.582Z,99848.92
2018-12-21T19:18:32.179Z,99849.72
2018-12-21T19:20:59.784Z,99855.34
2018-12-21T19:23:27.351Z,99842.08
2018-12-21T19:25:55.263Z,99852.59
2018-12-21T19:28:22.861Z,99860.39
2018-12-21T19:30:50.722Z,99869.02
2018-12-21T19:33:18.403Z,99865.72
2018-12-21T19:35:45.926Z,99882.48
2018-12-21T19:38:13.935Z,99875.44
2018-12-21T19:40:42.394Z,99879.16
2018-12-21T19:43:10.307Z,99882.38
2018-12-21T19:45:38.732Z,99873.46
2018-12-21T19:48:06.326Z,99871.81
2018-12-21T19:50:34.473Z,99871.81
2018-12-21T19:53:02.755Z,99873.16
2018-12-21T19:55:37.938Z,99879.62
2018-12-21T19:58:05.632Z,99880.67
2018-12-21T20:00:34.748Z,99868.23
2018-12-21T20:03:02.576Z,99878.20
2018-12-21T20:05:31.068Z,99877.38
2018-12-21T20:07:58.666Z,99880.64
2018-12-21T20:10:26.704Z,99867.90
2018-12-21T20:12:54.888Z,99887.09
2018-12-21T20:15:24.873Z,99875.17
2018-12-21T20:17:52.949Z,99884.33
2018-12-21T20:20:20.444Z,99885.91
2018-12-21T20:22:48.988Z,99885.38
2018-12-21T20:25:16.809Z,99894.00
2018-12-21T20:27:44.632Z,99891.00
2018-12-21T20:30:13.761Z,99891.00
2018-12-21T20:32:41.726Z,99886.13
2018-12-21T20:35:10.198Z,99886.50
2018-12-21T20:37:38.001Z,99887.84
2018-12-21T20:40:09.612Z,99884.63
2018-12-21T20:42:37.455Z,99878.41
2018-12-21T20:45:08.212Z,99868.12
2018-12-21T20:47:35.980Z,99876.45
2018-12-21T20:50:06.914Z,99878.86
2018-12-21T20:52:34.790Z,99877.51
2018-12-21T20:55:04.158Z,99869.64
2018-12-21T20:57:32.615Z,99883.14
2018-12-21T21:00:01.399Z,99885.84
2018-12-21T21:02:29.267Z,99883.14
2018-12-21T21:04:56.927Z,99895.02
2018-12-21T21:07:25.110Z,99904.46
2018-12-21T21:09:53.171Z,99892.31
2018-12-21T21:12:21.175Z,99903.11
2018-12-21T21:14:49.022Z,99906.34
2018-12-21T21:17:17.407Z,99896.07
2018-12-21T21:19:45.669Z,99892.31
2018-12-21T21:22:13.702Z,99880.63
2018-12-21T21:24:41.549Z,99902.75
2018-12-21T21:27:09.155Z,99900.88
2018-12-21T21:29:37.290Z,99917.30
2018-12-21T21:32:05.604Z,99917.34
2018-12-21T21:34:33.617Z,99930.06
2018-12-21T21:37:01.186Z,99935.25
2018-12-21T21:39:29.214Z,99934.17
2018-12-21T21:41:56.740Z,99937.92
2018-12-21T21:44:24.752Z,99939.56
2018-12-21T21:46:52.378Z,99946.80
2018-12-21T21:49:20.383Z,99959.57
2018-12-21T21:51:48.585Z,99953.64
2018-12-21T21:54:16.076Z,99956.83
2018-12-21T21:56:44.070Z,99933.99
2018-12-21T21:59:11.775Z,99937.05
2018-12-21T22:01:39.542Z,99943.83
2018-12-21T22:04:07.143Z,99944.88
2018-12-21T22:06:35.070Z,99952.47
2018-12-21T22:09:02.795Z,99957.93
2018-12-21T22:11:30.695Z,99963.00
2018-12-21T22:13:58.911Z,99966.95
2018-12-21T22:16:27.756Z,99962.55
2018-12-21T22:18:55.800Z,99956.53
2018-12-21T22:21:23.298Z,99968.26
2018-12-21T22:23:51.386Z,99968.97
2018-12-21T22:26:18.950Z,99973.35
2018-12-21T22:28:46.922Z,99967.52
2018-12-21T22:31:14.338Z,99966.24
2018-12-21T22:33:41.932Z,99961.20
2018-12-21T22:36:09.901Z,99963.66
2018-12-21T22:38:37.321Z,99956.92
2018-12-21T22:41:04.881Z,99959.99
2018-12-21T22:43:32.865Z,99962.69
2018-12-21T22:46:00.295Z,99962.73
2018-12-21T22:48:27.775Z,99961.91
2018-12-21T22:50:55.842Z,99951.42
2018-12-21T22:53:23.268Z,99958.47
2018-12-21T22:55:51.364Z,99959.59
2018-12-21T22:58:18.851Z,99952.02
2018-12-21T23:00:46.498Z,99945.58
2018-12-21T23:03:14.428Z,99940.19
2018-12-21T23:05:41.875Z,99941.53
2018-12-21T23:08:09.879Z,99936.44
2018-12-21T23:10:37.478Z,99935.61
2018-12-21T23:13:05.686Z,99947.52
2018-12-21T23:15:33.695Z,99952.09
2018-12-21T23:18:01.857Z,99951.72
2018-12-21T23:20:29.627Z,99941.42
2018-12-21T23:22:57.495Z,99941.12
2018-12-21T23:25:25.050Z,99936.70
2018-12-21T23:27:53.147Z,99933.18
2018-12-21T23:30:20.685Z,99932.87
2018-12-21T23:32:48.415Z,99933.89
2018-12-21T23:35:16.237Z,99933.21
2018-12-21T23:37:43.913Z,99934.56
2018-12-21T23:40:11.609Z,99925.80
2018-12-21T23:42:39.262Z,99935.28
2018-12-21T23:45:07.062Z,99940.22
2018-12-21T23:47:34.643Z,99937.30
2018-12-21T23:50:02.477Z,99941.87
2018-12-21T23:52:30.241Z,99948.68
2018-12-21T23:54:57.903Z,99952.20
2018-12-21T23:57:25.772Z,99951.12
2018-12-21T23:59:53.434Z,99947.34
